Time,TemperatureF,DewpointF,PressureIn,WindDirection,WindDirectionDegrees,WindSpeedMPH,WindSpeedGustMPH,Humidity,HourlyPrecipIn,Conditions,Clouds,dailyrainin,SoftwareType,DateUTC
2013-03-04 00:01:00,37.0,23.0,-100.00,WSW,255,26.0,34.0,56,0.00,,,-99.99,,2013-03-04 00:01:00,
2013-03-04 00:11:00,37.0,23.0,-100.00,West,260,26.0,35.0,57,0.00,,,-99.99,,2013-03-04 00:11:00,
2013-03-04 00:21:00,36.0,24.0,-100.00,WSW,255,23.0,34.0,59,0.00,,,-99.99,,2013-03-04 00:21:00,
2013-03-04 00:32:00,36.0,24.0,-100.00,West,260,19.0,28.0,61,0.00,,,-99.99,,2013-03-04 00:32:00,
2013-03-04 00:42:00,36.0,24.0,-100.00,West,260,22.0,28.0,61,0.00,,,-99.99,,2013-03-04 00:42:00,
2013-03-04 00:52:00,36.0,24.0,-100.00,West,260,25.0,32.0,61,0.00,,,-99.99,,2013-03-04 00:52:00,
2013-03-04 01:01:00,35.0,24.0,-100.00,West,260,20.0,29.0,63,0.00,,,-99.99,,2013-03-04 01:01:00,
2013-03-04 01:11:00,35.0,24.0,-100.00,WSW,250,24.0,29.0,63,0.00,,,-99.99,,2013-03-04 01:11:00,
2013-03-04 01:21:00,35.0,24.0,-100.00,WSW,255,22.0,29.0,63,0.00,,,-99.99,,2013-03-04 01:21:00,
2013-03-04 01:32:00,35.0,24.0,-100.00,West,260,20.0,28.0,64,0.00,,,-99.99,,2013-03-04 01:32:00,
2013-03-04 01:42:00,34.0,24.0,-100.00,West,265,16.0,27.0,66,0.00,,,-99.99,,2013-03-04 01:42:00,
2013-03-04 01:51:00,34.0,24.0,-100.00,West,270,14.0,19.0,67,0.00,,,-99.99,,2013-03-04 01:51:00,
2013-03-04 02:01:00,34.0,23.0,-100.00,West,260,19.0,24.0,65,0.00,,,-99.99,,2013-03-04 02:01:00,
2013-03-04 02:11:00,34.0,24.0,-100.00,West,270,16.0,22.0,65,0.00,,,-99.99,,2013-03-04 02:11:00,
2013-03-04 02:22:00,34.0,23.0,-100.00,West,265,16.0,23.0,65,0.00,,,-99.99,,2013-03-04 02:22:00,
2013-03-04 02:32:00,33.0,23.0,-100.00,West,265,12.0,23.0,67,0.00,,,-99.99,,2013-03-04 02:32:00,
2013-03-04 02:42:00,33.0,23.0,-100.00,WSW,255,16.0,20.0,67,0.00,,,-99.99,,2013-03-04 02:42:00,
2013-03-04 02:52:00,33.0,24.0,-100.00,WSW,255,16.0,21.0,68,0.00,,,-99.99,,2013-03-04 02:52:00,
2013-03-04 03:01:00,32.0,24.0,-100.00,WSW,245,18.0,22.0,70,0.00,,,-99.99,,2013-03-04 03:01:00,
2013-03-04 03:11:00,32.0,24.0,-100.00,WSW,255,16.0,22.0,71,0.00,,,-99.99,,2013-03-04 03:11:00,
2013-03-04 03:21:00,32.0,24.0,-100.00,WSW,240,19.0,27.0,70,0.00,,,-99.99,,2013-03-04 03:21:00,
2013-03-04 03:32:00,32.0,24.0,-100.00,WSW,240,19.0,27.0,70,0.00,,,-99.99,,2013-03-04 03:32:00,
2013-03-04 03:42:00,32.0,24.0,-100.00,WSW,255,19.0,24.0,70,0.00,,,-99.99,,2013-03-04 03:42:00,
2013-03-04 03:52:00,32.0,24.0,-100.00,WSW,255,17.0,23.0,71,0.00,,,-99.99,,2013-03-04 03:52:00,
2013-03-04 04:01:00,32.0,24.0,-100.00,West,270,15.0,24.0,71,0.00,,,-99.99,,2013-03-04 04:01:00,
2013-03-04 04:11:00,32.0,24.0,-100.00,WNW,285,16.0,21.0,71,0.00,,,-99.99,,2013-03-04 04:11:00,
2013-03-04 04:22:00,33.0,24.0,-100.00,West,270,17.0,21.0,71,0.00,,,-99.99,,2013-03-04 04:22:00,
2013-03-04 04:32:00,33.0,24.0,-100.00,West,260,20.0,26.0,71,0.00,,,-99.99,,2013-03-04 04:32:00,
2013-03-04 04:42:00,33.0,24.0,-100.00,West,260,22.0,27.0,71,0.00,,,-99.99,,2013-03-04 04:42:00,
2013-03-04 04:51:00,33.0,25.0,-100.00,West,260,19.0,26.0,72,0.00,,,-99.99,,2013-03-04 04:51:00,
2013-03-04 05:01:00,32.0,24.0,-100.00,West,270,19.0,26.0,73,0.00,,,-99.99,,2013-03-04 05:01:00,
2013-03-04 05:11:00,32.0,24.0,-100.00,West,270,21.0,26.0,72,0.00,,,-99.99,,2013-03-04 05:11:00,
2013-03-04 05:22:00,32.0,25.0,-100.00,WSW,255,22.0,29.0,75,0.00,,,-99.99,,2013-03-04 05:22:00,
2013-03-04 05:31:00,32.0,25.0,-100.00,West,260,22.0,29.0,76,0.00,,,-99.99,,2013-03-04 05:31:00,
2013-03-04 05:42:00,32.0,25.0,-100.00,West,270,24.0,30.0,74,0.00,,,-99.99,,2013-03-04 05:42:00,
2013-03-04 05:52:00,32.0,24.0,-100.00,West,265,22.0,29.0,74,0.00,,,-99.99,,2013-03-04 05:52:00,
2013-03-04 06:01:00,31.0,24.0,-100.00,West,270,19.0,29.0,74,0.00,,,-99.99,,2013-03-04 06:01:00,
2013-03-04 06:11:00,31.0,24.0,-100.00,West,280,19.0,25.0,74,0.00,,,-99.99,,2013-03-04 06:11:00,
2013-03-04 06:21:00,31.0,24.0,-100.00,West,275,14.0,22.0,75,0.00,,,-99.99,,2013-03-04 06:21:00,
2013-03-04 06:32:00,32.0,23.0,-100.00,West,260,19.0,26.0,69,0.00,,,-99.99,,2013-03-04 06:32:00,
2013-03-04 06:42:00,32.0,23.0,-100.00,West,275,19.0,26.0,68,0.00,,,-99.99,,2013-03-04 06:42:00,
2013-03-04 06:51:00,33.0,21.0,-100.00,West,280,22.0,30.0,61,0.00,,,-99.99,,2013-03-04 06:51:00,
2013-03-04 07:01:00,33.0,21.0,-100.00,West,280,21.0,31.0,61,0.00,,,-99.99,,2013-03-04 07:01:00,
2013-03-04 07:11:00,32.0,21.0,-100.00,West,270,21.0,28.0,62,0.00,,,-99.99,,2013-03-04 07:11:00,
2013-03-04 07:21:00,32.0,21.0,-100.00,West,260,20.0,29.0,64,0.00,,,-99.99,,2013-03-04 07:21:00,
2013-03-04 07:32:00,32.0,21.0,-100.00,West,270,20.0,27.0,64,0.00,,,-99.99,,2013-03-04 07:32:00,
2013-03-04 07:51:00,32.0,20.0,-100.00,West,270,26.0,35.0,60,0.00,,,-99.99,,2013-03-04 07:51:00,
2013-03-04 08:02:00,33.0,20.0,-100.00,West,270,27.0,35.0,58,0.00,,,-99.99,,2013-03-04 08:02:00,
2013-03-04 08:11:00,32.0,19.0,-100.00,West,270,26.0,35.0,58,0.00,,,-99.99,,2013-03-04 08:11:00,
2013-03-04 08:21:00,32.0,19.0,-100.00,West,270,25.0,32.0,58,0.00,,,-99.99,,2013-03-04 08:21:00,
2013-03-04 08:32:00,32.0,19.0,-100.00,West,270,24.0,32.0,59,0.00,,,-99.99,,2013-03-04 08:32:00,
2013-03-04 08:41:00,32.0,18.0,-100.00,West,275,24.0,33.0,56,0.00,,,-99.99,,2013-03-04 08:41:00,
2013-03-04 08:52:00,31.0,18.0,-100.00,West,280,22.0,35.0,56,0.00,,,-99.99,,2013-03-04 08:52:00,
2013-03-04 09:01:00,31.0,18.0,-100.00,WNW,285,22.0,30.0,57,0.00,,,-99.99,,2013-03-04 09:01:00,
2013-03-04 09:11:00,31.0,18.0,-100.00,West,280,22.0,29.0,57,0.00,,,-99.99,,2013-03-04 09:11:00,
2013-03-04 09:21:00,30.0,17.0,-100.00,West,275,23.0,30.0,57,0.00,,,-99.99,,2013-03-04 09:21:00,
2013-03-04 09:32:00,29.0,17.0,-100.00,West,275,21.0,28.0,58,0.00,,,-99.99,,2013-03-04 09:32:00,
2013-03-04 09:42:00,29.0,16.0,-100.00,West,275,23.0,27.0,58,0.00,,,-99.99,,2013-03-04 09:42:00,
2013-03-04 09:51:00,29.0,15.0,-100.00,West,270,24.0,32.0,55,0.00,,,-99.99,,2013-03-04 09:51:00,
2013-03-04 10:01:00,29.0,15.0,-100.00,West,280,26.0,33.0,53,0.00,,,-99.99,,2013-03-04 10:01:00,
2013-03-04 10:11:00,29.0,14.0,-100.00,West,280,26.0,34.0,53,0.00,,,-99.99,,2013-03-04 10:11:00,
2013-03-04 10:21:00,29.0,14.0,-100.00,West,270,24.0,35.0,54,0.00,,,-99.99,,2013-03-04 10:21:00,
2013-03-04 10:32:00,28.0,15.0,-100.00,West,270,26.0,34.0,55,0.00,,,-99.99,,2013-03-04 10:32:00,
2013-03-04 10:42:00,29.0,15.0,-100.00,West,260,30.0,38.0,55,0.00,,,-99.99,,2013-03-04 10:42:00,
2013-03-04 10:52:00,28.0,15.0,-100.00,West,270,28.0,37.0,58,0.00,,,-99.99,,2013-03-04 10:52:00,
2013-03-04 11:01:00,28.0,16.0,-100.00,West,265,28.0,37.0,60,0.00,,,-99.99,,2013-03-04 11:01:00,
2013-03-04 11:11:00,27.0,16.0,-100.00,West,270,26.0,37.0,63,0.00,,,-99.99,,2013-03-04 11:11:00,
2013-03-04 11:21:00,27.0,16.0,-100.00,West,270,22.0,29.0,62,0.00,,,-99.99,,2013-03-04 11:21:00,
2013-03-04 11:32:00,27.0,15.0,-100.00,West,275,21.0,30.0,60,0.00,,,-99.99,,2013-03-04 11:32:00,
2013-03-04 11:42:00,27.0,15.0,-100.00,WNW,290,20.0,27.0,59,0.00,,,-99.99,,2013-03-04 11:42:00,
2013-03-04 11:52:00,26.0,15.0,-100.00,WNW,290,16.0,23.0,61,0.00,,,-99.99,,2013-03-04 11:52:00,
2013-03-04 12:01:00,26.0,15.0,-100.00,WNW,295,18.0,25.0,61,0.00,,,-99.99,,2013-03-04 12:01:00,
2013-03-04 12:11:00,27.0,15.0,-100.00,WNW,290,9.0,19.0,60,0.00,,,-99.99,,2013-03-04 12:11:00,
2013-03-04 12:22:00,26.0,14.0,-100.00,WNW,285,5.0,14.0,61,0.00,,,-99.99,,2013-03-04 12:22:00,
2013-03-04 12:32:00,18.0,15.0,-100.00,NE,40,4.0,9.0,85,0.00,,,-99.99,,2013-03-04 12:32:00,
2013-03-04 12:42:00,24.0,16.0,-100.00,WNW,285,10.0,16.0,70,0.00,,,-99.99,,2013-03-04 12:42:00,
2013-03-04 12:52:00,26.0,15.0,-100.00,WNW,285,12.0,16.0,65,0.00,,,-99.99,,2013-03-04 12:52:00,
2013-03-04 13:02:00,25.0,15.0,-100.00,West,270,11.0,15.0,66,0.00,,,-99.99,,2013-03-04 13:02:00,
2013-03-04 13:11:00,25.0,15.0,-100.00,West,275,10.0,15.0,67,0.00,,,-99.99,,2013-03-04 13:11:00,
2013-03-04 13:21:00,25.0,15.0,-100.00,West,265,12.0,19.0,66,0.00,,,-99.99,,2013-03-04 13:21:00,
2013-03-04 13:32:00,26.0,16.0,-100.00,West,265,16.0,19.0,65,0.00,,,-99.99,,2013-03-04 13:32:00,
2013-03-04 13:41:00,25.0,15.0,-100.00,WSW,255,13.0,21.0,66,0.00,,,-99.99,,2013-03-04 13:41:00,
2013-03-04 13:51:00,25.0,16.0,-100.00,West,260,14.0,21.0,66,0.00,,,-99.99,,2013-03-04 13:51:00,
2013-03-04 14:01:00,25.0,16.0,-100.00,West,260,15.0,19.0,66,0.00,,,-99.99,,2013-03-04 14:01:00,
2013-03-04 14:11:00,26.0,16.0,-100.00,West,260,16.0,19.0,66,0.00,,,-99.99,,2013-03-04 14:11:00,
2013-03-04 14:22:00,26.0,16.0,-100.00,West,265,14.0,21.0,66,0.00,,,-99.99,,2013-03-04 14:22:00,
2013-03-04 14:32:00,26.0,17.0,-100.00,West,270,14.0,19.0,65,0.00,,,-99.99,,2013-03-04 14:32:00,
2013-03-04 14:42:00,27.0,16.0,-100.00,West,265,17.0,21.0,63,0.00,,,-99.99,,2013-03-04 14:42:00,
2013-03-04 14:52:00,27.0,16.0,-100.00,West,275,13.0,19.0,64,0.00,,,-99.99,,2013-03-04 14:52:00,
2013-03-04 15:01:00,26.0,20.0,-100.00,WNW,300,13.0,18.0,76,0.03,,,-99.99,,2013-03-04 15:01:00,
2013-03-04 15:11:00,25.0,21.0,-100.00,WNW,300,14.0,18.0,83,0.07,,,-99.99,,2013-03-04 15:11:00,
2013-03-04 15:21:00,25.0,21.0,-100.00,WNW,300,12.0,16.0,88,0.04,,,-99.99,,2013-03-04 15:21:00,
2013-03-04 15:32:00,25.0,20.0,-100.00,WNW,285,19.0,23.0,80,0.00,,,-99.99,,2013-03-04 15:32:00,
2013-03-04 15:42:00,25.0,19.0,-100.00,West,280,20.0,24.0,77,0.00,,,-99.99,,2013-03-04 15:42:00,
2013-03-04 15:52:00,26.0,18.0,-100.00,West,265,16.0,24.0,73,0.00,,,-99.99,,2013-03-04 15:52:00,
2013-03-04 16:02:00,25.0,17.0,-100.00,West,270,17.0,22.0,69,0.00,,,-99.99,,2013-03-04 16:02:00,
2013-03-04 16:11:00,25.0,16.0,-100.00,WNW,295,18.0,23.0,69,0.00,,,-99.99,,2013-03-04 16:11:00,
2013-03-04 16:21:00,22.0,18.0,-100.00,WNW,295,22.0,26.0,84,0.03,,,-99.99,,2013-03-04 16:21:00,
2013-03-04 16:32:00,22.0,16.0,-100.00,WNW,290,19.0,26.0,78,0.00,,,-99.99,,2013-03-04 16:32:00,
2013-03-04 16:42:00,20.0,17.0,-100.00,WNW,300,19.0,25.0,86,0.04,,,-99.99,,2013-03-04 16:42:00,
2013-03-04 16:52:00,20.0,17.0,-100.00,WNW,300,17.0,25.0,88,0.03,,,-99.99,,2013-03-04 16:52:00,
2013-03-04 17:02:00,20.0,15.0,-100.00,WNW,290,19.0,30.0,79,0.01,,,-99.99,,2013-03-04 17:02:00,
2013-03-04 17:11:00,20.0,16.0,-100.00,WNW,295,23.0,30.0,83,0.03,,,-99.99,,2013-03-04 17:11:00,
2013-03-04 17:22:00,18.0,14.0,-100.00,WNW,290,19.0,26.0,83,0.03,,,-99.99,,2013-03-04 17:22:00,
2013-03-04 17:32:00,18.0,13.0,-100.00,WNW,300,24.0,30.0,82,0.03,,,-99.99,,2013-03-04 17:32:00,
2013-03-04 17:42:00,17.0,14.0,-100.00,NW,305,22.0,32.0,86,0.04,,,-99.99,,2013-03-04 17:42:00,
2013-03-04 17:52:00,18.0,14.0,-100.00,NW,315,21.0,28.0,84,0.01,,,-99.99,,2013-03-04 17:52:00,
2013-03-04 18:01:00,17.0,12.0,-100.00,NW,325,21.0,30.0,82,0.03,,,-99.99,,2013-03-04 18:01:00,
2013-03-04 18:11:00,15.0,11.0,-100.00,NW,305,22.0,29.0,82,0.01,,,-99.99,,2013-03-04 18:11:00,
2013-03-04 18:21:00,14.0,9.0,-100.00,NW,320,26.0,32.0,79,0.03,,,-99.99,,2013-03-04 18:21:00,
2013-03-04 18:32:00,13.0,8.0,-100.00,NW,320,17.0,35.0,79,0.00,,,-99.99,,2013-03-04 18:32:00,
2013-03-04 18:42:00,13.0,8.0,-100.00,NW,320,23.0,32.0,78,0.01,,,-99.99,,2013-03-04 18:42:00,
2013-03-04 18:52:00,13.0,8.0,-100.00,NW,320,29.0,38.0,77,0.01,,,-99.99,,2013-03-04 18:52:00,
2013-03-04 19:02:00,14.0,9.0,-100.00,NW,325,21.0,32.0,79,0.00,,,-99.99,,2013-03-04 19:02:00,
2013-03-04 19:11:00,13.0,8.0,-100.00,NNW,330,29.0,37.0,77,0.00,,,-99.99,,2013-03-04 19:11:00,
2013-03-04 19:21:00,13.0,8.0,-100.00,NW,325,29.0,39.0,79,0.00,,,-99.99,,2013-03-04 19:21:00,
2013-03-04 19:32:00,14.0,9.0,-100.00,NW,325,22.0,40.0,80,0.00,,,-99.99,,2013-03-04 19:32:00,
2013-03-04 19:42:00,13.0,7.0,-100.00,NW,315,29.0,39.0,76,0.00,,,-99.99,,2013-03-04 19:42:00,
2013-03-04 19:51:00,14.0,7.0,-100.00,NW,315,22.0,35.0,74,0.00,,,-99.99,,2013-03-04 19:51:00,
2013-03-04 20:01:00,14.0,7.0,-100.00,NNW,330,25.0,34.0,74,0.00,,,-99.99,,2013-03-04 20:01:00,
2013-03-04 20:11:00,13.0,7.0,-100.00,NNW,330,27.0,35.0,74,0.00,,,-99.99,,2013-03-04 20:11:00,
2013-03-04 20:22:00,13.0,7.0,-100.00,NNW,330,27.0,35.0,74,0.00,,,-99.99,,2013-03-04 20:22:00,
2013-03-04 20:32:00,13.0,6.0,-100.00,NW,325,26.0,41.0,74,0.00,,,-99.99,,2013-03-04 20:32:00,
2013-03-04 20:42:00,13.0,6.0,-100.00,NW,320,27.0,39.0,74,0.00,,,-99.99,,2013-03-04 20:42:00,
2013-03-04 20:52:00,14.0,6.0,-100.00,NW,315,33.0,42.0,71,0.00,,,-99.99,,2013-03-04 20:52:00,
2013-03-04 21:02:00,15.0,6.0,-100.00,NW,320,26.0,43.0,70,0.00,,,-99.99,,2013-03-04 21:02:00,
2013-03-04 21:11:00,15.0,7.0,-100.00,NW,310,29.0,38.0,70,0.00,,,-99.99,,2013-03-04 21:11:00,
2013-03-04 21:21:00,14.0,7.0,-100.00,NW,315,29.0,39.0,71,0.00,,,-99.99,,2013-03-04 21:21:00,
2013-03-04 21:32:00,14.0,6.0,-100.00,NW,320,34.0,44.0,68,0.00,,,-99.99,,2013-03-04 21:32:00,
2013-03-04 21:42:00,15.0,8.0,-100.00,NW,310,32.0,48.0,72,0.00,,,-99.99,,2013-03-04 21:42:00,
2013-03-04 21:52:00,16.0,6.0,-100.00,NW,305,35.0,45.0,64,0.00,,,-99.99,,2013-03-04 21:52:00,
2013-03-04 22:01:00,16.0,6.0,-100.00,WNW,295,27.0,41.0,65,0.00,,,-99.99,,2013-03-04 22:01:00,
2013-03-04 22:12:00,16.0,6.0,-100.00,WNW,295,28.0,35.0,64,0.00,,,-99.99,,2013-03-04 22:12:00,
2013-03-04 22:22:00,15.0,4.0,-100.00,WNW,290,29.0,36.0,61,0.00,,,-99.99,,2013-03-04 22:22:00,
2013-03-04 22:32:00,15.0,4.0,-100.00,WNW,290,32.0,40.0,62,0.00,,,-99.99,,2013-03-04 22:32:00,
2013-03-04 22:42:00,14.0,5.0,-100.00,WNW,295,32.0,38.0,65,0.00,,,-99.99,,2013-03-04 22:42:00,
2013-03-04 22:52:00,14.0,4.0,-100.00,WNW,290,33.0,41.0,63,0.00,,,-99.99,,2013-03-04 22:52:00,
2013-03-04 23:01:00,14.0,2.0,-100.00,WNW,295,31.0,43.0,60,0.00,,,-99.99,,2013-03-04 23:01:00,
2013-03-04 23:11:00,14.0,3.0,-100.00,WNW,295,35.0,43.0,59,0.00,,,-99.99,,2013-03-04 23:11:00,
2013-03-04 23:22:00,15.0,4.0,-100.00,WNW,295,34.0,45.0,61,0.00,,,-99.99,,2013-03-04 23:22:00,
2013-03-04 23:32:00,14.0,5.0,-100.00,WNW,295,33.0,45.0,67,0.00,,,-99.99,,2013-03-04 23:32:00,
2013-03-04 23:42:00,14.0,4.0,-100.00,WNW,295,26.0,43.0,64,0.00,,,-99.99,,2013-03-04 23:42:00,
2013-03-04 23:52:00,14.0,3.0,-100.00,WNW,295,33.0,44.0,61,0.00,,,-99.99,,2013-03-04 23:52:00,